Time;durP1;ratioP1;P1;durP2;ratioP2;P2;SDS_P1;SDS_P2;PMS_P1;PMS_P2;Temp;Humidity;BMP_temperature;BMP_pressure;BME280_temperature;BME280_humidity;BME280_pressure;Samples;Min_cycle;Max_cycle;Signal;HPM_P1;HPM_P2
2023/04/04 00:00:54;;;;;;;0.40;0.30;;;;;;;10.24;100.00;93890.81;5133136;27;20492;-56
2023/04/04 00:03:23;;;;;;;0.40;0.30;;;;;;;10.18;100.00;93847.78;5133680;27;20441;-56
2023/04/04 00:05:53;;;;;;;0.40;0.20;;;;;;;10.53;100.00;93882.41;5132366;27;20439;-56
2023/04/04 00:08:21;;;;;;;0.30;0.30;;;;;;;10.63;100.00;93859.09;5132354;27;20495;-56
2023/04/04 00:10:50;;;;;;;0.40;0.30;;;;;;;10.72;100.00;93862.59;5133264;27;20593;-56
2023/04/04 00:13:18;;;;;;;0.40;0.40;;;;;;;10.75;100.00;93856.66;5132571;27;20966;-56
2023/04/04 00:15:47;;;;;;;0.40;0.30;;;;;;;10.47;100.00;93838.59;5132966;27;20435;-56
2023/04/04 00:18:15;;;;;;;0.50;0.40;;;;;;;10.60;100.00;93832.44;5132448;27;20435;-56
2023/04/04 00:20:44;;;;;;;0.40;0.30;;;;;;;10.65;100.00;93867.50;5131784;27;20470;-57
2023/04/04 00:23:14;;;;;;;0.40;0.30;;;;;;;10.32;100.00;93858.31;5132503;27;20489;-56
2023/04/04 00:25:42;;;;;;;0.30;0.20;;;;;;;10.56;100.00;93879.16;5133285;27;20443;-57
2023/04/04 00:28:11;;;;;;;0.40;0.30;;;;;;;10.57;100.00;93859.53;5132464;27;20431;-56
2023/04/04 00:30:39;;;;;;;0.40;0.30;;;;;;;9.90;100.00;93819.84;5132116;27;20427;-56
2023/04/04 00:33:08;;;;;;;0.30;0.20;;;;;;;10.26;100.00;93853.44;5132602;27;20442;-56
2023/04/04 00:35:37;;;;;;;0.40;0.30;;;;;;;9.89;100.00;93846.63;5131815;27;20430;-57
2023/04/04 00:38:06;;;;;;;0.30;0.20;;;;;;;10.04;100.00;93844.38;5119344;27;20521;-57
2023/04/04 00:40:41;;;;;;;0.30;0.30;;;;;;;9.78;100.00;93848.72;5131453;27;20796;-57
2023/04/04 00:43:10;;;;;;;0.30;0.20;;;;;;;10.24;100.00;93845.00;5131850;27;20507;-57
2023/04/04 00:45:38;;;;;;;0.40;0.30;;;;;;;10.10;100.00;93842.38;5132526;27;20431;-57
2023/04/04 00:48:07;;;;;;;0.40;0.30;;;;;;;9.60;100.00;93868.16;5132658;27;20491;-57
2023/04/04 00:50:35;;;;;;;0.40;0.30;;;;;;;9.38;100.00;93860.97;5132443;27;20435;-57
2023/04/04 00:53:04;;;;;;;0.30;0.20;;;;;;;9.98;100.00;93858.03;5131114;27;20439;-57
2023/04/04 00:55:32;;;;;;;0.80;0.30;;;;;;;9.91;100.00;93874.34;5131836;27;20780;-57
2023/04/04 00:58:03;;;;;;;0.30;0.20;;;;;;;10.28;100.00;93875.09;5132039;27;20439;-57
2023/04/04 01:00:34;;;;;;;0.30;0.20;;;;;;;9.88;100.00;93868.84;5131253;28;20457;-56
2023/04/04 01:03:04;;;;;;;0.30;0.20;;;;;;;9.79;100.00;93871.41;5130901;28;20851;-57
2023/04/04 01:05:33;;;;;;;0.30;0.20;;;;;;;9.93;100.00;93874.03;5130722;28;20446;-56
2023/04/04 01:08:02;;;;;;;0.30;0.20;;;;;;;9.92;100.00;93870.59;5131770;28;20958;-57
2023/04/04 01:10:30;;;;;;;0.33;0.27;;;;;;;9.39;100.00;93830.00;5132199;28;20530;-56
2023/04/04 01:13:02;;;;;;;0.40;0.30;;;;;;;9.88;100.00;93872.28;5132376;28;20526;-56
2023/04/04 01:15:30;;;;;;;0.60;0.60;;;;;;;9.79;100.00;93865.38;5131019;27;20478;-56
2023/04/04 01:18:02;;;;;;;0.40;0.33;;;;;;;9.13;100.00;93872.06;5131633;28;20431;-56
2023/04/04 01:20:34;;;;;;;0.60;0.60;;;;;;;9.22;100.00;93874.78;5132478;28;20435;-56
2023/04/04 01:23:04;;;;;;;0.30;0.20;;;;;;;9.48;100.00;93881.91;5131158;28;20482;-56
2023/04/04 01:25:34;;;;;;;0.30;0.20;;;;;;;9.65;100.00;93878.63;5132211;28;20444;-56
2023/04/04 01:28:03;;;;;;;0.30;0.30;;;;;;;9.29;100.00;93872.50;5132521;27;20439;-56
2023/04/04 01:30:34;;;;;;;0.30;0.20;;;;;;;9.33;100.00;93889.38;5118337;28;20975;-56
2023/04/04 01:33:10;;;;;;;0.30;0.30;;;;;;;9.15;100.00;93884.97;5132617;28;20457;-57
2023/04/04 01:35:44;;;;;;;0.30;0.20;;;;;;;9.15;100.00;93883.13;5129569;28;20446;-56
2023/04/04 01:38:21;;;;;;;0.40;0.40;;;;;;;8.77;100.00;93884.38;5130275;28;20446;-57
2023/04/04 01:40:55;;;;;;;0.40;0.20;;;;;;;8.82;100.00;93887.72;5131250;28;20461;-56
2023/04/04 01:43:23;;;;;;;0.30;0.20;;;;;;;8.88;100.00;93883.88;5130983;28;20474;-56
2023/04/04 01:45:52;;;;;;;0.30;0.20;;;;;;;9.00;100.00;93886.06;5130878;28;20446;-56
2023/04/04 01:48:21;;;;;;;0.30;0.20;;;;;;;8.83;100.00;93840.91;5132402;28;20558;-56
2023/04/04 01:50:49;;;;;;;0.30;0.20;;;;;;;9.08;100.00;93892.50;5132151;28;20456;-56
2023/04/04 01:53:17;;;;;;;0.30;0.20;;;;;;;9.13;100.00;93890.56;5131317;28;20503;-57
2023/04/04 01:55:46;;;;;;;0.30;0.20;;;;;;;9.14;100.00;93888.69;5131833;28;20529;-57
2023/04/04 01:58:15;;;;;;;0.40;0.40;;;;;;;8.82;100.00;93885.06;5131520;28;20482;-57
2023/04/04 02:00:44;;;;;;;0.47;0.30;;;;;;;8.59;100.00;93886.00;5132050;28;20840;-57
2023/04/04 02:03:12;;;;;;;0.40;0.30;;;;;;;8.32;100.00;93849.00;5131819;27;20478;-57
2023/04/04 02:05:41;;;;;;;0.30;0.20;;;;;;;8.98;100.00;93895.34;5135290;27;20521;-57
2023/04/04 02:08:09;;;;;;;0.30;0.20;;;;;;;8.34;100.00;93838.16;5135507;27;20538;-57
2023/04/04 02:10:37;;;;;;;0.30;0.20;;;;;;;8.03;100.00;93851.03;5134844;27;20951;-57
2023/04/04 02:13:06;;;;;;;0.30;0.20;;;;;;;8.32;100.00;93896.53;5134812;27;20439;-57
2023/04/04 02:15:36;;;;;;;0.30;0.20;;;;;;;8.12;100.00;93896.81;5133935;27;20467;-57
2023/04/04 02:18:04;;;;;;;0.30;0.20;;;;;;;8.12;100.00;93907.38;5134167;27;20422;-58
2023/04/04 02:20:33;;;;;;;0.30;0.20;;;;;;;8.09;100.00;93897.38;5135199;27;20434;-57
2023/04/04 02:23:01;;;;;;;0.30;0.20;;;;;;;7.77;100.00;93910.53;5133436;27;20553;-57
2023/04/04 02:25:29;;;;;;;0.30;0.20;;;;;;;8.18;100.00;93907.00;5134903;27;20946;-58
2023/04/04 02:27:58;;;;;;;0.30;0.20;;;;;;;8.25;100.00;93909.25;5134799;27;20442;-58
2023/04/04 02:30:27;;;;;;;0.30;0.20;;;;;;;8.61;100.00;93904.97;5134205;27;20522;-57
2023/04/04 02:32:59;;;;;;;0.30;0.20;;;;;;;8.46;100.00;93897.31;5135048;27;20500;-58
2023/04/04 02:35:27;;;;;;;0.30;0.20;;;;;;;8.36;100.00;93908.06;5134702;27;20445;-58
2023/04/04 02:37:56;;;;;;;0.40;0.30;;;;;;;8.29;100.00;93889.97;5135212;27;20430;-57
2023/04/04 02:40:24;;;;;;;0.60;0.50;;;;;;;8.30;100.00;93896.78;5135151;27;20864;-57
2023/04/04 02:42:52;;;;;;;0.90;0.90;;;;;;;8.41;100.00;93893.97;5134590;27;20503;-57
2023/04/04 02:45:21;;;;;;;0.40;0.40;;;;;;;8.38;100.00;93882.16;5134301;27;20441;-57
2023/04/04 02:47:50;;;;;;;0.30;0.30;;;;;;;8.79;100.00;93890.13;5134798;27;20438;-56
2023/04/04 02:50:20;;;;;;;0.30;0.20;;;;;;;7.95;100.00;93875.44;5134664;27;20843;-57
2023/04/04 02:52:48;;;;;;;0.30;0.20;;;;;;;7.91;100.00;93874.44;5134737;27;20449;-57
2023/04/04 02:55:16;;;;;;;0.30;0.30;;;;;;;7.87;100.00;93884.78;5120991;27;20533;-57
2023/04/04 02:57:51;;;;;;;0.47;0.27;;;;;;;8.09;100.00;93887.63;5134466;27;20431;-57
2023/04/04 03:00:20;;;;;;;0.30;0.20;;;;;;;8.30;100.00;93891.50;5133391;27;20438;-57
2023/04/04 03:02:54;;;;;;;0.30;0.20;;;;;;;8.37;100.00;93891.16;5133584;27;20836;-57
2023/04/04 03:05:25;;;;;;;0.30;0.20;;;;;;;8.36;100.00;93891.44;5108274;27;20436;-57
2023/04/04 03:07:55;;;;;;;0.30;0.20;;;;;;;8.40;100.00;93884.50;5134834;27;20450;-57
2023/04/04 03:10:24;;;;;;;0.30;0.30;;;;;;;7.99;100.00;93853.47;5132923;27;20446;-57
2023/04/04 03:12:53;;;;;;;2.50;0.80;;;;;;;8.12;100.00;93891.53;5133487;27;20443;-57
2023/04/04 03:15:22;;;;;;;0.70;0.70;;;;;;;8.16;100.00;93897.78;5133530;27;20435;-57
2023/04/04 03:17:50;;;;;;;0.60;0.60;;;;;;;8.04;100.00;93885.06;5134352;27;20464;-57
2023/04/04 03:20:19;;;;;;;0.30;0.20;;;;;;;8.26;100.00;93861.50;5134438;27;20466;-57
2023/04/04 03:22:49;;;;;;;0.40;0.30;;;;;;;8.23;100.00;93856.78;5133618;27;20502;-56
2023/04/04 03:25:17;;;;;;;0.40;0.30;;;;;;;8.47;100.00;93880.41;5092657;28;20441;-57
2023/04/04 03:27:46;;;;;;;0.30;0.20;;;;;;;8.59;100.00;93864.09;5078034;28;20476;-57
2023/04/04 03:30:14;;;;;;;0.30;0.20;;;;;;;8.55;100.00;93879.72;5092639;28;20440;-57
2023/04/04 03:32:43;;;;;;;4.63;2.10;;;;;;;8.69;100.00;93875.25;5093255;28;20527;-57
2023/04/04 03:35:11;;;;;;;0.30;0.30;;;;;;;8.12;100.00;93801.81;5093067;28;20436;-57
2023/04/04 03:37:41;;;;;;;0.40;0.23;;;;;;;8.53;100.00;93868.69;5092926;28;20441;-57
2023/04/04 03:40:12;;;;;;;0.50;0.40;;;;;;;8.61;100.00;93880.44;5093087;28;20536;-57
2023/04/04 03:42:41;;;;;;;0.33;0.27;;;;;;;9.09;100.00;93878.22;5092863;28;20529;-57
2023/04/04 03:45:10;;;;;;;0.33;0.27;;;;;;;9.17;100.00;93873.03;5091772;28;20796;-57
2023/04/04 03:47:39;;;;;;;0.50;0.30;;;;;;;9.38;100.00;93865.47;5092605;28;20501;-56
2023/04/04 03:50:08;;;;;;;0.40;0.27;;;;;;;9.67;100.00;93879.09;5091952;28;20512;-56
2023/04/04 03:52:38;;;;;;;0.30;0.20;;;;;;;9.83;100.00;93876.91;5092850;28;20955;-56
2023/04/04 03:55:08;;;;;;;0.70;0.40;;;;;;;9.78;100.00;93880.47;5078634;28;20519;-56
2023/04/04 03:57:38;;;;;;;0.67;0.67;;;;;;;9.75;100.00;93859.09;5092738;28;20941;-56
2023/04/04 04:00:07;;;;;;;0.40;0.30;;;;;;;9.84;100.00;93878.50;5091907;28;20536;-56
2023/04/04 04:02:36;;;;;;;0.40;0.33;;;;;;;9.31;100.00;93796.34;5092545;28;20472;-56
2023/04/04 04:05:05;;;;;;;0.30;0.20;;;;;;;10.11;100.00;93886.31;5091882;28;20436;-57
2023/04/04 04:07:33;;;;;;;0.60;0.60;;;;;;;9.88;100.00;93885.53;5092454;28;20959;-57
2023/04/04 04:10:02;;;;;;;0.30;0.20;;;;;;;9.58;100.00;93891.47;5092278;28;20444;-57
2023/04/04 04:12:30;;;;;;;0.30;0.30;;;;;;;8.89;100.00;93845.03;5091974;28;20433;-57
2023/04/04 04:15:00;;;;;;;0.57;0.53;;;;;;;9.20;100.00;93898.88;5092551;28;20446;-57
2023/04/04 04:17:28;;;;;;;0.40;0.30;;;;;;;9.26;100.00;93910.91;5092278;28;20864;-57
2023/04/04 04:19:57;;;;;;;0.83;0.30;;;;;;;8.90;100.00;93875.69;5091882;28;20498;-57
2023/04/04 04:22:25;;;;;;;0.40;0.30;;;;;;;9.01;100.00;93914.03;5091280;28;20436;-57
2023/04/04 04:24:54;;;;;;;0.40;0.40;;;;;;;8.50;100.00;93886.97;5099986;27;20501;-56
2023/04/04 04:27:22;;;;;;;0.40;0.33;;;;;;;8.84;100.00;93925.19;5133071;27;20446;-58
2023/04/04 04:29:51;;;;;;;0.30;0.20;;;;;;;9.34;100.00;93923.44;5132707;27;20507;-57
2023/04/04 04:32:20;;;;;;;0.50;0.40;;;;;;;9.21;100.00;93928.75;5132787;27;20470;-57
2023/04/04 04:34:49;;;;;;;0.40;0.30;;;;;;;9.18;100.00;93935.41;5131656;27;20474;-57
2023/04/04 04:37:17;;;;;;;0.40;0.30;;;;;;;8.90;100.00;93945.13;5132049;27;20443;-57
2023/04/04 04:39:45;;;;;;;3.30;2.27;;;;;;;9.20;100.00;93927.16;5131184;27;20443;-57
2023/04/04 04:42:14;;;;;;;1.90;1.17;;;;;;;9.35;100.00;93924.22;5131464;27;20895;-57
2023/04/04 04:44:42;;;;;;;0.80;0.80;;;;;;;8.71;100.00;93920.66;5131440;27;20474;-57
2023/04/04 04:47:10;;;;;;;1.13;1.13;;;;;;;8.26;100.00;93924.03;5131712;27;20431;-57
2023/04/04 04:49:41;;;;;;;0.77;0.50;;;;;;;7.81;100.00;93837.69;5132593;27;20438;-57
2023/04/04 04:52:09;;;;;;;0.87;0.87;;;;;;;8.39;100.00;93918.03;5132017;27;20510;-56
2023/04/04 04:54:38;;;;;;;0.40;0.40;;;;;;;8.52;100.00;93924.44;5132197;27;20534;-56
2023/04/04 04:57:06;;;;;;;0.87;0.73;;;;;;;8.69;100.00;93906.16;5131421;27;21028;-56
2023/04/04 04:59:35;;;;;;;0.30;0.20;;;;;;;8.61;100.00;93904.97;5132674;27;20487;-56
2023/04/04 05:02:04;;;;;;;1.03;0.50;;;;;;;9.01;100.00;93932.53;5131920;27;20438;-56
2023/04/04 05:04:32;;;;;;;0.40;0.30;;;;;;;9.06;100.00;93935.06;5130790;27;20481;-57
2023/04/04 05:07:02;;;;;;;0.50;0.50;;;;;;;9.07;100.00;93938.50;5104704;28;20515;-56
2023/04/04 05:09:30;;;;;;;0.40;0.30;;;;;;;8.93;100.00;93890.91;5131655;28;20957;-56
2023/04/04 05:11:59;;;;;;;0.40;0.40;;;;;;;9.30;100.00;93942.81;5132415;28;20442;-56
2023/04/04 05:14:27;;;;;;;0.87;0.87;;;;;;;9.32;100.00;93941.44;5131454;28;20438;-55
2023/04/04 05:16:56;;;;;;;2.40;2.30;;;;;;;9.44;100.00;93935.66;5132456;28;20529;-55
2023/04/04 05:19:24;;;;;;;0.77;0.77;;;;;;;9.37;100.00;93932.63;5131831;28;20449;-55
2023/04/04 05:21:53;;;;;;;2.93;1.50;;;;;;;9.24;100.00;93922.84;5132346;28;20521;-55
2023/04/04 05:24:23;;;;;;;1.17;0.70;;;;;;;9.17;100.00;93925.88;5131878;27;20486;-55
2023/04/04 05:26:51;;;;;;;0.40;0.40;;;;;;;8.95;100.00;93929.19;5131937;27;20431;-55
2023/04/04 05:29:19;;;;;;;0.40;0.27;;;;;;;9.01;100.00;93932.53;5132095;28;20435;-55
2023/04/04 05:31:47;;;;;;;1.50;1.47;;;;;;;9.08;100.00;93937.44;5132056;27;20442;-55
2023/04/04 05:34:16;;;;;;;0.40;0.30;;;;;;;9.18;100.00;93937.25;5131524;28;20499;-55
2023/04/04 05:36:44;;;;;;;0.40;0.30;;;;;;;9.11;100.00;93934.22;5132142;28;21072;-55
2023/04/04 05:39:13;;;;;;;0.30;0.20;;;;;;;9.07;100.00;93938.50;5133780;27;20435;-55
2023/04/04 05:41:43;;;;;;;0.97;0.50;;;;;;;9.00;100.00;93943.41;5136290;27;20445;-55
2023/04/04 05:44:11;;;;;;;1.03;0.30;;;;;;;8.74;100.00;93929.84;5135926;27;20478;-56
2023/04/04 05:46:39;;;;;;;0.30;0.23;;;;;;;8.73;100.00;93909.78;5136259;27;20439;-55
2023/04/04 05:49:08;;;;;;;0.30;0.20;;;;;;;9.01;100.00;93952.88;5135556;27;20441;-55
2023/04/04 05:51:36;;;;;;;0.30;0.20;;;;;;;8.97;100.00;93943.97;5135669;27;20518;-55
2023/04/04 05:54:06;;;;;;;0.40;0.30;;;;;;;8.63;100.00;93942.44;5136012;27;20517;-55
2023/04/04 05:56:34;;;;;;;0.50;0.37;;;;;;;9.04;100.00;93941.72;5135298;27;20430;-55
2023/04/04 05:59:04;;;;;;;0.40;0.30;;;;;;;9.42;100.00;93943.91;5135498;27;20464;-55
2023/04/04 06:01:33;;;;;;;0.30;0.20;;;;;;;9.70;100.00;93951.78;5135440;27;20442;-55
2023/04/04 06:04:01;;;;;;;0.30;0.30;;;;;;;9.63;100.00;93957.50;5135342;27;20541;-55
2023/04/04 06:06:29;;;;;;;0.30;0.20;;;;;;;9.56;100.00;93946.53;5134866;27;20437;-55
2023/04/04 06:08:58;;;;;;;0.30;0.20;;;;;;;9.69;100.00;93952.88;5135570;27;20526;-55
2023/04/04 06:11:26;;;;;;;0.67;0.67;;;;;;;9.83;100.00;93959.72;5134616;27;20974;-55
2023/04/04 06:13:54;;;;;;;0.50;0.50;;;;;;;9.76;100.00;93966.50;5134954;27;20484;-55
2023/04/04 06:16:24;;;;;;;0.30;0.20;;;;;;;9.39;100.00;93975.41;5134610;27;20449;-56
2023/04/04 06:18:52;;;;;;;1.23;1.13;;;;;;;9.10;100.00;93975.72;5135689;27;20449;-56
2023/04/04 06:21:21;;;;;;;0.60;0.60;;;;;;;9.05;100.00;93978.44;5134839;27;20477;-56
2023/04/04 06:23:49;;;;;;;0.40;0.30;;;;;;;9.38;100.00;93973.88;5134935;27;20474;-56
2023/04/04 06:26:18;;;;;;;0.30;0.20;;;;;;;9.22;100.00;93983.16;5135052;27;20442;-56
2023/04/04 06:28:49;;;;;;;0.90;0.90;;;;;;;9.64;100.00;93980.22;5134864;27;20894;-56
2023/04/04 06:31:18;;;;;;;0.30;0.30;;;;;;;10.06;100.00;93981.72;5134469;27;20922;-56
2023/04/04 06:33:48;;;;;;;1.87;1.77;;;;;;;10.18;100.00;93988.09;5135002;27;20485;-56
2023/04/04 06:36:17;;;;;;;0.50;0.50;;;;;;;10.26;100.00;94001.69;5134711;27;20830;-56
2023/04/04 06:38:45;;;;;;;1.13;1.10;;;;;;;10.27;100.00;93998.00;5134399;27;20452;-56
2023/04/04 06:41:13;;;;;;;0.50;0.50;;;;;;;10.25;100.00;94006.22;5134512;27;20499;-55
2023/04/04 06:43:42;;;;;;;0.60;0.60;;;;;;;10.43;100.00;94010.56;5133925;27;20439;-55
2023/04/04 06:46:10;;;;;;;1.00;0.73;;;;;;;10.50;100.00;94002.22;5134698;27;20466;-55
2023/04/04 06:48:39;;;;;;;0.40;0.33;;;;;;;10.67;100.00;94020.91;5134385;27;20518;-55
2023/04/04 06:51:09;;;;;;;0.40;0.30;;;;;;;10.70;100.00;94017.66;5133209;27;21000;-55
2023/04/04 06:53:37;;;;;;;0.60;0.60;;;;;;;10.66;100.00;94021.97;5134241;27;20535;-54
2023/04/04 06:56:06;;;;;;;3.03;0.80;;;;;;;10.73;100.00;94023.13;5134315;27;20793;-55
2023/04/04 06:58:35;;;;;;;0.47;0.40;;;;;;;10.79;100.00;94029.09;5133436;27;20839;-54
2023/04/04 07:01:03;;;;;;;0.50;0.40;;;;;;;10.34;100.00;94020.31;5133534;27;20533;-54
2023/04/04 07:03:32;;;;;;;0.60;0.60;;;;;;;9.91;100.00;93990.00;5133960;27;20491;-54
2023/04/04 07:06:03;;;;;;;1.27;1.27;;;;;;;10.29;100.00;94033.69;5134118;27;20516;-54
2023/04/04 07:08:33;;;;;;;1.47;1.10;;;;;;;10.21;100.00;94031.72;5133998;27;20811;-54
2023/04/04 07:11:05;;;;;;;0.40;0.30;;;;;;;9.90;100.00;93956.66;5134032;27;20439;-54
2023/04/04 07:13:33;;;;;;;1.40;1.40;;;;;;;10.32;100.00;94048.19;5107544;27;20443;-54
2023/04/04 07:16:02;;;;;;;5.43;3.30;;;;;;;9.88;100.00;94054.88;5133954;27;20934;-54
2023/04/04 07:18:31;;;;;;;2.00;1.90;;;;;;;9.51;100.00;94039.22;5134150;27;20446;-54
2023/04/04 07:20:59;;;;;;;0.93;0.93;;;;;;;9.18;100.00;94064.13;5134085;27;20443;-55
2023/04/04 07:23:27;;;;;;;0.70;0.63;;;;;;;8.98;100.00;94072.38;5133637;27;20478;-54
2023/04/04 07:25:57;;;;;;;1.03;0.63;;;;;;;9.23;100.00;94056.09;5133742;27;20474;-54
2023/04/04 07:28:25;;;;;;;0.87;0.87;;;;;;;9.41;100.00;94071.88;5133706;27;20919;-54
2023/04/04 07:30:54;;;;;;;0.83;0.80;;;;;;;9.23;100.00;94004.03;5130119;27;20428;-54
2023/04/04 07:33:22;;;;;;;0.30;0.20;;;;;;;10.01;100.00;94075.25;5123515;27;20443;-55
2023/04/04 07:35:51;;;;;;;3.80;0.30;;;;;;;10.19;100.00;94082.31;5133881;27;20427;-55
2023/04/04 07:38:19;;;;;;;0.40;0.40;;;;;;;10.44;100.00;94077.56;5132889;27;20439;-54
2023/04/04 07:40:48;;;;;;;0.40;0.40;;;;;;;10.36;100.00;94086.22;5133718;27;20435;-54
2023/04/04 07:43:18;;;;;;;0.40;0.33;;;;;;;10.33;100.00;94078.88;5133028;27;20973;-55
2023/04/04 07:45:47;;;;;;;0.43;0.43;;;;;;;10.25;100.00;94082.19;5132697;27;20482;-54
2023/04/04 07:48:15;;;;;;;0.30;0.20;;;;;;;10.41;100.00;94086.13;5133063;27;20495;-53
2023/04/04 07:50:43;;;;;;;0.40;0.40;;;;;;;10.27;100.00;94088.00;5132496;27;20522;-54
2023/04/04 07:53:12;;;;;;;0.53;0.30;;;;;;;9.96;100.00;94040.97;5131820;27;20553;-54
2023/04/04 07:55:40;;;;;;;1.60;0.70;;;;;;;10.04;100.00;94082.59;5133237;27;20802;-54
2023/04/04 07:58:08;;;;;;;1.77;1.67;;;;;;;9.90;100.00;94088.97;5131966;27;20438;-54
2023/04/04 08:00:38;;;;;;;1.07;0.97;;;;;;;9.94;100.00;94085.44;5133108;27;20433;-53
2023/04/04 08:03:07;;;;;;;21.63;2.30;;;;;;;9.81;100.00;94082.81;5132511;27;20442;-54
2023/04/04 08:05:35;;;;;;;1.20;1.20;;;;;;;9.67;100.00;94080.16;5132709;27;20473;-54
2023/04/04 08:08:03;;;;;;;2.20;0.70;;;;;;;9.65;100.00;94082.31;5131516;27;20492;-54
2023/04/04 08:10:32;;;;;;;3.07;2.53;;;;;;;9.89;100.00;94077.59;5131730;27;20439;-54
2023/04/04 08:13:00;;;;;;;2.27;2.10;;;;;;;9.98;100.00;94081.13;5132327;27;20511;-54
2023/04/04 08:15:29;;;;;;;2.10;2.00;;;;;;;9.78;100.00;94063.00;5132751;27;20435;-53
2023/04/04 08:17:59;;;;;;;1.97;1.37;;;;;;;9.84;100.00;94075.03;5132111;27;20474;-54
2023/04/04 08:20:28;;;;;;;2.10;1.03;;;;;;;9.92;100.00;94077.00;5132634;27;20443;-53
2023/04/04 08:22:56;;;;;;;1.40;1.33;;;;;;;9.68;100.00;94080.94;5131256;27;20453;-53
2023/04/04 08:25:25;;;;;;;1.77;1.77;;;;;;;9.76;100.00;94009.63;5132391;27;20462;-54
2023/04/04 08:27:53;;;;;;;1.43;1.33;;;;;;;10.18;100.00;94080.75;5132098;27;20431;-54
2023/04/04 08:30:22;;;;;;;1.93;1.67;;;;;;;10.72;100.00;94073.78;5131560;27;20539;-54
2023/04/04 08:32:50;;;;;;;1.40;1.40;;;;;;;10.70;100.00;94082.00;5132079;27;20439;-54
2023/04/04 08:35:20;;;;;;;0.40;0.40;;;;;;;10.99;100.00;94076.31;5131876;27;21027;-55
2023/04/04 08:37:48;;;;;;;0.30;0.27;;;;;;;11.16;100.00;94073.78;5118013;27;20467;-55
2023/04/04 08:40:17;;;;;;;0.50;0.50;;;;;;;10.61;100.00;94053.88;5131994;27;20479;-55
2023/04/04 08:42:46;;;;;;;0.30;0.30;;;;;;;11.18;100.00;94073.50;5131706;27;20927;-55
2023/04/04 08:45:18;;;;;;;0.30;0.30;;;;;;;11.38;100.00;94075.63;5131718;27;20785;-55
2023/04/04 08:47:50;;;;;;;0.40;0.30;;;;;;;10.59;100.00;93891.81;5132133;27;20529;-55
2023/04/04 08:50:21;;;;;;;0.53;0.53;;;;;;;11.22;100.00;94063.81;5131135;27;20435;-55
2023/04/04 08:52:50;;;;;;;0.40;0.30;;;;;;;11.24;100.00;94024.53;5132063;27;20529;-55
2023/04/04 08:55:19;;;;;;;0.30;0.20;;;;;;;11.68;100.00;94074.06;5132450;27;20853;-55
2023/04/04 08:57:48;;;;;;;0.50;0.50;;;;;;;11.93;100.00;94073.41;5131934;27;20447;-55
2023/04/04 09:00:16;;;;;;;0.40;0.30;;;;;;;11.48;100.00;93980.63;5132426;27;20437;-56
2023/04/04 09:02:51;;;;;;;0.30;0.20;;;;;;;11.70;100.00;93995.72;5132590;27;20457;-56
2023/04/04 09:05:21;;;;;;;0.30;0.20;;;;;;;12.30;100.00;94064.91;5132509;27;20441;-56
2023/04/04 09:07:51;;;;;;;0.40;0.30;;;;;;;12.65;100.00;94061.22;5132203;28;20465;-55
2023/04/04 09:10:19;;;;;;;0.70;0.40;;;;;;;12.11;100.00;94003.34;5131802;28;20487;-55
2023/04/04 09:12:48;;;;;;;0.30;0.20;;;;;;;12.82;100.00;94062.31;5131992;27;20446;-56
2023/04/04 09:15:17;;;;;;;0.40;0.40;;;;;;;13.13;100.00;94049.66;5135649;27;20478;-56
2023/04/04 09:17:46;;;;;;;0.47;0.30;;;;;;;13.28;100.00;94051.81;5135214;27;20530;-55
2023/04/04 09:20:39;;;;;;;0.40;0.30;;;;;;;13.76;100.00;94046.97;5124535;27;20435;-56
2023/04/04 09:23:10;;;;;;;0.40;0.30;;;;;;;14.05;100.00;94042.78;5136334;27;20439;-56
2023/04/04 09:25:46;;;;;;;0.40;0.37;;;;;;;14.45;99.58;94041.31;5136374;27;20912;-55
2023/04/04 09:28:28;;;;;;;0.40;0.30;;;;;;;14.80;95.59;94028.53;5136360;27;20491;-55
2023/04/04 09:30:56;;;;;;;0.40;0.40;;;;;;;15.32;95.03;94034.94;5135757;27;20970;-56
2023/04/04 09:33:26;;;;;;;0.40;0.30;;;;;;;15.83;88.67;94033.66;5136209;27;20435;-56
2023/04/04 09:35:58;;;;;;;0.30;0.20;;;;;;;15.67;83.53;94035.38;5136076;27;20463;-57
2023/04/04 09:38:29;;;;;;;0.40;0.30;;;;;;;16.08;83.05;94045.91;5135391;27;20474;-57
2023/04/04 09:40:58;;;;;;;0.50;0.30;;;;;;;16.49;74.02;94032.28;5135714;27;20439;-57
2023/04/04 09:43:29;;;;;;;0.40;0.20;;;;;;;16.79;79.54;94026.69;5135809;27;20522;-57
2023/04/04 09:46:00;;;;;;;0.40;0.30;;;;;;;17.02;74.07;94027.72;5134883;27;20526;-58
2023/04/04 09:48:31;;;;;;;0.40;0.20;;;;;;;17.04;67.54;94023.59;5135809;27;20574;-59
2023/04/04 09:51:04;;;;;;;0.30;0.20;;;;;;;17.53;67.75;94026.06;5136223;27;20438;-59
2023/04/04 09:53:35;;;;;;;0.50;0.50;;;;;;;17.77;64.51;94026.69;5135475;27;20427;-60
2023/04/04 09:56:05;;;;;;;0.40;0.20;;;;;;;18.48;68.20;94024.94;5135508;27;20549;-61
2023/04/04 09:58:35;;;;;;;0.40;0.30;;;;;;;18.77;63.45;94027.88;5135628;27;20448;-64
2023/04/04 10:01:08;;;;;;;0.40;0.30;;;;;;;19.47;62.50;94019.72;5137467;27;20536;-65
2023/04/04 10:03:38;;;;;;;0.40;0.30;;;;;;;19.84;61.68;94026.13;5135781;27;20438;-66
2023/04/04 10:06:09;;;;;;;0.40;0.20;;;;;;;19.38;60.39;94032.63;5135680;27;20467;-66
2023/04/04 10:08:42;;;;;;;0.90;0.40;;;;;;;19.22;62.64;94029.19;5134993;27;20529;-66
2023/04/04 10:11:10;;;;;;;0.40;0.30;;;;;;;18.78;61.74;94025.97;5135257;27;20430;-65
2023/04/04 10:13:42;;;;;;;0.63;0.57;;;;;;;18.51;63.02;94027.72;5135497;27;20439;-65
2023/04/04 10:16:11;;;;;;;0.67;0.50;;;;;;;18.20;59.14;94022.34;5135145;27;20491;-64
2023/04/04 10:18:40;;;;;;;0.47;0.33;;;;;;;17.74;62.04;94022.03;5135199;27;20443;-63
2023/04/04 10:21:10;;;;;;;0.50;0.40;;;;;;;17.03;60.61;94023.91;5134954;27;20434;-62
2023/04/04 10:23:45;;;;;;;0.50;0.50;;;;;;;16.36;60.99;93973.81;5135210;27;20474;-61
2023/04/04 10:26:14;;;;;;;1.00;0.47;;;;;;;16.52;61.53;93978.13;5134711;27;21240;-61
2023/04/04 10:28:42;;;;;;;0.40;0.30;;;;;;;17.17;62.87;94018.97;5135056;27;20957;-60
2023/04/04 10:31:20;;;;;;;0.43;0.27;;;;;;;17.83;60.70;94011.13;5134312;27;20483;-60
2023/04/04 10:34:00;;;;;;;0.70;0.70;;;;;;;17.41;60.93;94010.81;5135349;27;20434;-60
2023/04/04 10:36:36;;;;;;;0.40;0.20;;;;;;;17.75;63.37;94023.59;5134831;27;20435;-60
2023/04/04 10:39:13;;;;;;;0.40;0.20;;;;;;;18.55;58.06;94017.81;5134818;27;20450;-60
2023/04/04 10:41:42;;;;;;;0.40;0.37;;;;;;;18.02;60.68;93962.16;5134138;27;20477;-60
2023/04/04 10:44:18;;;;;;;0.40;0.20;;;;;;;17.48;61.08;94021.69;5133958;27;20970;-60
2023/04/04 10:46:50;;;;;;;0.50;0.47;;;;;;;16.77;61.33;94005.63;5134285;27;20478;-60
2023/04/04 10:49:20;;;;;;;0.40;0.30;;;;;;;17.32;63.23;93994.13;5134383;27;20522;-61
2023/04/04 10:51:51;;;;;;;0.87;0.87;;;;;;;17.53;61.92;94010.75;5134044;27;20435;-61
2023/04/04 10:54:25;;;;;;;0.50;0.40;;;;;;;17.44;60.44;94014.69;5134647;27;20525;-61
2023/04/04 10:56:55;;;;;;;0.40;0.30;;;;;;;17.25;59.82;93956.44;5134066;27;20507;-62
2023/04/04 10:59:25;;;;;;;0.40;0.40;;;;;;;18.09;61.53;93997.97;5134848;27;20434;-62
2023/04/04 11:01:57;;;;;;;0.40;0.20;;;;;;;18.58;61.95;93998.34;5133743;27;20434;-63
2023/04/04 11:04:33;;;;;;;0.43;0.30;;;;;;;18.24;58.85;93967.66;5133780;27;20439;-64
2023/04/04 11:07:28;;;;;;;4.03;0.90;;;;;;;18.05;58.33;93982.94;5134238;27;20906;-64
2023/04/04 11:09:57;;;;;;;0.40;0.40;;;;;;;18.66;57.34;93926.81;5134498;27;20438;-66
2023/04/04 11:12:30;;;;;;;0.60;0.53;;;;;;;19.50;55.21;93970.66;5122269;27;20479;-66
2023/04/04 11:15:08;;;;;;;1.43;0.60;;;;;;;19.13;58.91;93956.88;5132960;27;20443;-68
2023/04/04 11:18:05;;;;;;;1.60;0.40;;;;;;;19.70;57.30;93974.06;5133776;27;20876;-68
2023/04/04 11:20:54;;;;;;;0.40;0.33;;;;;;;19.66;55.08;93968.59;5133363;27;20449;-66
2023/04/04 11:23:26;;;;;;;0.40;0.40;;;;;;;19.24;56.96;93970.50;5133554;27;21016;-65
2023/04/04 11:25:56;;;;;;;0.70;0.30;;;;;;;19.26;54.87;93970.94;5133826;27;20818;-63
2023/04/04 11:28:43;;;;;;;3.27;0.50;;;;;;;20.30;54.53;93961.56;5133815;27;20474;-63
2023/04/04 11:31:26;;;;;;;0.70;0.70;;;;;;;20.88;54.58;93958.13;5127870;27;20432;-62
2023/04/04 11:33:57;;;;;;;0.40;0.30;;;;;;;22.33;48.37;93953.38;5123125;27;20439;-61
2023/04/04 11:36:54;;;;;;;0.77;0.77;;;;;;;20.98;50.16;93958.63;5133243;27;20867;-60
2023/04/04 11:39:26;;;;;;;1.63;1.53;;;;;;;19.48;53.18;93957.53;5133057;27;20453;-61
2023/04/04 11:41:57;;;;;;;0.40;0.30;;;;;;;19.37;55.72;93961.97;5132185;27;20449;-60
2023/04/04 11:44:29;;;;;;;4.97;0.50;;;;;;;19.62;55.68;93963.19;5133358;27;20779;-61